createdAt,value
2018-03-03T00:00:59.574Z,30.30
2018-03-03T00:01:59.566Z,29.90
2018-03-03T00:03:54.066Z,28.70
2018-03-03T00:04:53.881Z,32.00
2018-03-03T00:06:48.239Z,31.40
2018-03-03T00:07:48.223Z,29.60
2018-03-03T00:09:42.670Z,29.90
2018-03-03T00:10:42.647Z,28.20
2018-03-03T00:12:36.999Z,25.40
2018-03-03T00:13:36.909Z,22.10
2018-03-03T00:15:31.336Z,27.40
2018-03-03T00:16:31.347Z,27.80
2018-03-03T00:18:26.630Z,28.90
2018-03-03T00:21:26.451Z,29.40
2018-03-03T00:22:25.479Z,29.80
2018-03-03T00:24:21.845Z,29.30
2018-03-03T00:25:19.349Z,29.50
2018-03-03T00:27:13.228Z,28.20
2018-03-03T00:30:08.397Z,23.00
2018-03-03T00:31:08.413Z,26.70
2018-03-03T00:33:01.759Z,28.70
2018-03-03T00:34:02.762Z,28.70
2018-03-03T00:35:57.578Z,30.90
2018-03-03T00:36:57.093Z,32.70
2018-03-03T00:38:51.445Z,29.10
2018-03-03T00:39:51.946Z,29.70
2018-03-03T00:41:45.461Z,29.60
2018-03-03T00:42:46.266Z,30.40
2018-03-03T00:44:41.623Z,32.30
2018-03-03T00:45:40.116Z,31.10
2018-03-03T00:47:33.507Z,31.80
2018-03-03T00:48:33.484Z,31.40
2018-03-03T00:50:28.022Z,31.70
2018-03-03T00:51:28.044Z,31.70
2018-03-03T00:53:22.361Z,32.10
2018-03-03T00:54:22.301Z,32.10
2018-03-03T00:56:16.672Z,33.10
2018-03-03T00:57:16.689Z,32.90
2018-03-03T00:59:11.266Z,31.50
2018-03-03T01:00:10.998Z,31.30
2018-03-03T01:02:05.368Z,31.50
2018-03-03T01:03:05.332Z,32.30
2018-03-03T01:04:59.827Z,31.70
2018-03-03T01:05:59.669Z,32.40
2018-03-03T01:07:54.038Z,32.90
2018-03-03T01:08:54.084Z,33.20
2018-03-03T01:10:48.427Z,32.10
2018-03-03T01:11:48.371Z,33.20
2018-03-03T01:13:42.844Z,32.90
2018-03-03T01:14:42.716Z,32.80
2018-03-03T01:16:37.063Z,34.50
2018-03-03T01:17:37.051Z,34.60
2018-03-03T01:19:31.764Z,30.90
2018-03-03T01:20:31.387Z,33.30
2018-03-03T01:22:26.290Z,33.90
2018-03-03T01:23:26.263Z,32.70
2018-03-03T01:25:20.675Z,35.30
2018-03-03T01:26:20.575Z,33.60
2018-03-03T01:28:16.516Z,33.70
2018-03-03T01:29:14.943Z,34.80
2018-03-03T01:31:09.262Z,33.30
2018-03-03T01:32:09.247Z,32.50
2018-03-03T01:34:03.643Z,32.50
2018-03-03T01:35:03.612Z,34.20
2018-03-03T01:36:57.940Z,30.90
2018-03-03T01:37:57.931Z,31.50
2018-03-03T01:39:52.330Z,33.90
2018-03-03T01:40:52.264Z,32.60
2018-03-03T01:42:46.617Z,32.20
2018-03-03T01:43:46.603Z,31.00
2018-03-03T01:45:41.102Z,35.10
2018-03-03T01:46:40.951Z,37.10
2018-03-03T01:48:35.317Z,31.50
2018-03-03T01:49:35.283Z,33.70
2018-03-03T01:51:29.841Z,33.00
2018-03-03T01:52:29.649Z,32.00
2018-03-03T01:54:23.993Z,33.60
2018-03-03T01:55:23.995Z,32.90
2018-03-03T01:57:18.561Z,33.30
2018-03-03T01:58:18.341Z,32.80
2018-03-03T02:00:16.767Z,34.50
2018-03-03T02:01:16.752Z,33.90
2018-03-03T02:03:11.213Z,35.10
2018-03-03T02:04:11.105Z,35.70
2018-03-03T02:06:06.033Z,36.50
2018-03-03T02:07:05.431Z,33.90
2018-03-03T02:09:00.026Z,32.40
2018-03-03T02:09:59.838Z,33.80
2018-03-03T02:11:54.168Z,34.40
2018-03-03T02:12:54.177Z,34.10
2018-03-03T02:14:48.504Z,34.70
2018-03-03T02:15:48.444Z,34.10
2018-03-03T02:17:42.816Z,33.20
2018-03-03T02:18:42.786Z,33.70
2018-03-03T02:20:37.342Z,33.80
2018-03-03T02:21:37.157Z,35.30
2018-03-03T02:23:31.526Z,32.40
2018-03-03T02:24:31.492Z,33.40
2018-03-03T02:26:25.883Z,34.20
2018-03-03T02:27:25.834Z,33.20
2018-03-03T02:29:20.451Z,34.20
2018-03-03T02:30:20.193Z,32.70
2018-03-03T02:32:14.515Z,32.70
2018-03-03T02:33:14.498Z,32.30
2018-03-03T02:35:08.894Z,34.10
2018-03-03T02:36:08.842Z,33.30
2018-03-03T02:38:03.775Z,34.50
2018-03-03T02:39:03.180Z,32.10
2018-03-03T02:40:57.856Z,34.40
2018-03-03T02:41:57.534Z,31.40
2018-03-03T02:43:51.883Z,32.20
2018-03-03T02:44:51.862Z,31.60
2018-03-03T02:46:46.269Z,33.50
2018-03-03T02:47:46.225Z,32.50
2018-03-03T02:49:40.570Z,32.70
2018-03-03T02:50:40.553Z,32.70
2018-03-03T02:52:34.958Z,29.40
2018-03-03T02:53:34.900Z,27.60
2018-03-03T02:55:29.259Z,37.30
2018-03-03T02:56:29.236Z,29.90
2018-03-03T02:58:23.871Z,33.30
2018-03-03T02:59:23.577Z,30.40
2018-03-03T03:01:17.923Z,29.70
2018-03-03T03:02:17.906Z,30.80
2018-03-03T03:04:12.307Z,30.40
2018-03-03T03:05:12.248Z,30.30
2018-03-03T03:07:06.663Z,32.30
2018-03-03T03:08:06.593Z,29.70
2018-03-03T03:10:00.962Z,31.30
2018-03-03T03:11:00.939Z,32.20
2018-03-03T03:12:55.346Z,31.90
2018-03-03T03:13:55.273Z,33.10
2018-03-03T03:15:49.646Z,32.90
2018-03-03T03:16:49.605Z,32.00
2018-03-03T03:18:44.488Z,32.40
2018-03-03T03:19:43.954Z,32.60
2018-03-03T03:20:43.925Z,32.10
2018-03-03T03:21:43.932Z,30.70
2018-03-03T03:22:43.903Z,33.30
2018-03-03T03:23:43.890Z,33.00
2018-03-03T03:24:43.873Z,32.70
2018-03-03T03:25:43.907Z,32.60
2018-03-03T03:26:43.849Z,32.50
2018-03-03T03:27:43.857Z,31.80
2018-03-03T03:28:43.864Z,33.40
2018-03-03T03:29:43.834Z,32.10
2018-03-03T03:30:43.814Z,30.60
2018-03-03T03:31:43.794Z,30.90
2018-03-03T03:32:43.778Z,29.30
2018-03-03T03:33:43.806Z,30.90
2018-03-03T03:34:43.782Z,31.00
2018-03-03T03:35:43.738Z,29.90
2018-03-03T03:36:43.798Z,30.30
2018-03-03T03:37:43.725Z,30.70
2018-03-03T03:38:43.751Z,29.60
2018-03-03T03:39:43.732Z,30.30
2018-03-03T03:40:43.743Z,31.50
2018-03-03T03:41:43.773Z,29.90
2018-03-03T03:42:43.643Z,29.10
2018-03-03T03:43:43.709Z,29.40
2018-03-03T03:44:43.644Z,29.80
2018-03-03T03:45:43.612Z,29.50
2018-03-03T03:46:43.605Z,30.30
2018-03-03T03:47:43.577Z,29.70
2018-03-03T03:48:43.568Z,30.60
2018-03-03T03:49:43.562Z,29.40
2018-03-03T03:50:43.546Z,30.50
2018-03-03T03:51:43.527Z,29.40
2018-03-03T03:52:43.515Z,30.40
2018-03-03T03:53:43.512Z,29.60
2018-03-03T03:54:43.500Z,28.30
2018-03-03T03:55:43.480Z,29.80
2018-03-03T03:56:43.463Z,28.40
2018-03-03T03:57:43.474Z,28.90
2018-03-03T03:58:43.442Z,28.80
2018-03-03T03:59:43.452Z,29.00
2018-03-03T04:00:43.423Z,29.90
2018-03-03T04:01:43.401Z,32.40
2018-03-03T04:02:43.446Z,29.80
2018-03-03T04:03:43.368Z,28.90
2018-03-03T04:04:43.385Z,27.30
2018-03-03T04:05:43.374Z,28.90
2018-03-03T04:06:43.345Z,28.20
2018-03-03T04:07:43.333Z,29.20
2018-03-03T04:08:43.389Z,26.00
2018-03-03T04:09:43.345Z,29.10
2018-03-03T04:10:43.277Z,27.10
2018-03-03T04:11:43.263Z,29.30
2018-03-03T04:12:43.252Z,26.60
2018-03-03T04:13:43.238Z,26.90
2018-03-03T04:14:43.225Z,28.80
2018-03-03T04:15:43.211Z,29.90
2018-03-03T04:16:43.197Z,26.90
2018-03-03T04:17:43.183Z,27.10
2018-03-03T04:18:43.219Z,28.60
2018-03-03T04:19:43.156Z,26.20
2018-03-03T04:20:43.144Z,25.60
2018-03-03T04:21:43.132Z,21.90
2018-03-03T04:22:43.116Z,26.00
2018-03-03T04:23:43.106Z,26.40
2018-03-03T04:24:43.090Z,24.90
2018-03-03T04:25:43.077Z,26.80
2018-03-03T04:26:43.076Z,27.10
2018-03-03T04:27:43.053Z,29.20
2018-03-03T04:28:43.035Z,28.60
2018-03-03T04:29:43.068Z,28.00
2018-03-03T04:30:43.006Z,27.00
2018-03-03T04:31:42.996Z,26.70
2018-03-03T04:32:42.979Z,26.10
2018-03-03T04:33:42.966Z,28.00
2018-03-03T04:34:42.950Z,28.80
2018-03-03T04:35:42.938Z,28.20
2018-03-03T04:36:42.988Z,26.70
2018-03-03T04:37:42.922Z,27.30
2018-03-03T04:38:42.902Z,26.50
2018-03-03T04:39:42.914Z,27.10
2018-03-03T04:40:42.893Z,28.80
2018-03-03T04:41:42.855Z,26.10
2018-03-03T04:42:42.843Z,27.40
2018-03-03T04:43:42.830Z,26.30
2018-03-03T04:44:42.814Z,24.20
2018-03-03T04:45:43.478Z,26.30
2018-03-03T04:46:42.794Z,25.10
2018-03-03T04:47:42.788Z,23.40
2018-03-03T04:48:42.790Z,28.50
2018-03-03T04:49:42.760Z,25.40
2018-03-03T04:50:42.785Z,22.20
2018-03-03T04:51:42.726Z,22.70
2018-03-03T04:52:42.728Z,23.80
2018-03-03T04:53:42.694Z,23.80
2018-03-03T04:54:42.681Z,26.80
2018-03-03T04:55:42.671Z,25.70
2018-03-03T04:56:42.649Z,26.40
2018-03-03T04:57:42.637Z,27.10
2018-03-03T04:58:42.623Z,28.00
2018-03-03T04:59:42.607Z,28.30
2018-03-03T05:00:42.594Z,28.70
2018-03-03T05:01:42.578Z,27.00
2018-03-03T05:02:42.575Z,24.90
2018-03-03T05:03:42.549Z,27.40
2018-03-03T05:04:42.537Z,28.20
2018-03-03T05:05:42.522Z,25.40
2018-03-03T05:06:42.507Z,26.90
2018-03-03T05:07:42.495Z,26.60
2018-03-03T05:08:42.485Z,23.90
2018-03-03T05:09:42.467Z,26.70
2018-03-03T05:10:42.451Z,25.20
2018-03-03T05:11:42.440Z,25.40
2018-03-03T05:12:42.424Z,28.00
2018-03-03T05:13:42.415Z,25.30
2018-03-03T05:14:42.472Z,25.90
2018-03-03T05:15:42.381Z,25.80
2018-03-03T05:16:42.368Z,26.20
2018-03-03T05:17:42.353Z,26.40
2018-03-03T05:18:42.338Z,26.30
2018-03-03T05:19:42.324Z,28.10
2018-03-03T05:20:42.311Z,26.50
2018-03-03T05:21:42.298Z,26.90
2018-03-03T05:22:42.369Z,26.50
2018-03-03T05:23:42.269Z,26.30
2018-03-03T05:24:42.254Z,27.30
2018-03-03T05:25:42.243Z,25.90
2018-03-03T05:26:42.228Z,26.00
2018-03-03T05:27:42.218Z,27.90
2018-03-03T05:28:42.200Z,27.80
2018-03-03T05:29:42.187Z,27.30
2018-03-03T05:30:42.172Z,28.00
2018-03-03T05:31:42.158Z,25.90
2018-03-03T05:32:42.182Z,27.10
2018-03-03T05:33:42.169Z,28.30
2018-03-03T05:34:42.130Z,26.60
2018-03-03T05:35:42.106Z,24.80
2018-03-03T05:36:42.132Z,24.60
2018-03-03T05:37:42.081Z,26.40
2018-03-03T05:38:42.077Z,24.80
2018-03-03T05:39:42.055Z,26.30
2018-03-03T05:40:42.088Z,28.00
2018-03-03T05:41:42.053Z,24.60
2018-03-03T05:42:42.050Z,25.80
2018-03-03T05:43:41.992Z,25.20
2018-03-03T05:44:41.980Z,26.30
2018-03-03T05:45:41.965Z,24.30
2018-03-03T05:46:42.230Z,22.30
2018-03-03T05:47:41.937Z,24.10
2018-03-03T05:48:41.930Z,25.30
2018-03-03T05:49:41.911Z,25.70
2018-03-03T05:50:41.924Z,23.60
2018-03-03T05:51:41.883Z,24.30
2018-03-03T05:52:41.866Z,23.80
2018-03-03T05:53:41.852Z,25.00
2018-03-03T05:54:41.838Z,25.20
2018-03-03T05:55:41.823Z,23.20
2018-03-03T05:56:41.819Z,25.80
2018-03-03T05:57:41.799Z,26.40
2018-03-03T05:58:41.782Z,25.20
2018-03-03T05:59:41.766Z,25.90
2018-03-03T06:00:41.752Z,24.60
2018-03-03T06:01:41.736Z,25.10
2018-03-03T06:02:41.725Z,24.10
2018-03-03T06:03:41.713Z,26.90
2018-03-03T06:04:41.713Z,25.00
2018-03-03T06:05:41.681Z,25.40
2018-03-03T06:06:41.726Z,26.50
2018-03-03T06:07:41.652Z,25.70
2018-03-03T06:08:41.643Z,23.70
2018-03-03T06:09:41.629Z,27.20
2018-03-03T06:10:41.610Z,26.80
2018-03-03T06:11:41.626Z,25.80
2018-03-03T06:12:41.583Z,24.20
2018-03-03T06:13:41.574Z,23.80
2018-03-03T06:14:41.549Z,25.80
2018-03-03T06:15:41.534Z,23.90
2018-03-03T06:16:41.533Z,28.40
2018-03-03T06:17:41.521Z,25.80
2018-03-03T06:18:41.510Z,25.10
2018-03-03T06:19:41.523Z,24.40
2018-03-03T06:20:41.516Z,25.50
2018-03-03T06:21:41.501Z,25.00
2018-03-03T06:22:41.497Z,26.60
2018-03-03T06:23:41.425Z,24.80
2018-03-03T06:24:41.477Z,25.10
2018-03-03T06:25:41.395Z,24.70
2018-03-03T06:26:41.387Z,25.00
2018-03-03T06:27:41.361Z,25.90
2018-03-03T06:28:41.347Z,27.20
2018-03-03T06:29:41.332Z,25.10
2018-03-03T06:30:41.317Z,24.40
2018-03-03T06:31:41.302Z,23.50
2018-03-03T06:32:41.289Z,22.50
2018-03-03T06:33:41.275Z,25.60
2018-03-03T06:34:41.260Z,26.30
2018-03-03T06:35:41.245Z,25.20
2018-03-03T06:36:41.231Z,25.10
2018-03-03T06:37:41.215Z,24.90
2018-03-03T06:38:41.207Z,25.60
2018-03-03T06:39:41.194Z,26.70
2018-03-03T06:40:41.172Z,25.90
2018-03-03T06:41:41.158Z,24.40
2018-03-03T06:42:41.146Z,24.70
2018-03-03T06:43:41.130Z,25.20
2018-03-03T06:44:41.114Z,24.60
2018-03-03T06:45:41.098Z,25.80
2018-03-03T06:46:41.086Z,25.40
2018-03-03T06:47:41.072Z,27.70
2018-03-03T06:48:41.056Z,27.90
2018-03-03T06:49:41.041Z,26.20
2018-03-03T06:50:41.029Z,26.10
2018-03-03T06:51:41.014Z,29.00
2018-03-03T06:52:41.009Z,26.50
2018-03-03T06:53:40.981Z,29.10
2018-03-03T06:54:40.967Z,28.10
2018-03-03T06:55:40.952Z,26.60
2018-03-03T06:56:40.939Z,27.60
2018-03-03T06:57:40.923Z,24.60
2018-03-03T06:58:40.910Z,25.60
2018-03-03T06:59:40.898Z,27.20
2018-03-03T07:00:40.920Z,27.30
2018-03-03T07:01:40.866Z,26.10
2018-03-03T07:02:40.854Z,26.30
2018-03-03T07:03:40.839Z,26.10
2018-03-03T07:04:40.830Z,28.10
2018-03-03T07:05:40.808Z,26.00
2018-03-03T07:06:40.798Z,26.30
2018-03-03T07:07:40.796Z,27.10
2018-03-03T07:08:40.767Z,25.30
2018-03-03T07:09:40.753Z,28.40
2018-03-03T07:10:40.737Z,23.80
2018-03-03T07:11:40.723Z,25.10
2018-03-03T07:12:40.710Z,25.60
2018-03-03T07:13:40.693Z,27.20
2018-03-03T07:14:40.678Z,27.70
2018-03-03T07:15:40.664Z,28.00
2018-03-03T07:16:40.652Z,25.80
2018-03-03T07:17:40.639Z,28.20
2018-03-03T07:18:41.387Z,28.60
2018-03-03T07:19:40.607Z,29.50
2018-03-03T07:20:40.595Z,27.80
2018-03-03T07:21:40.702Z,27.90
2018-03-03T07:22:40.572Z,28.40
2018-03-03T07:23:40.550Z,27.90
2018-03-03T07:24:40.535Z,29.30
2018-03-03T07:25:40.542Z,28.70
2018-03-03T07:26:40.505Z,29.90
2018-03-03T07:27:40.492Z,28.90
2018-03-03T07:28:40.484Z,28.00
2018-03-03T07:29:40.463Z,29.90
2018-03-03T07:30:40.449Z,30.20
2018-03-03T07:31:40.434Z,28.70
2018-03-03T07:32:40.422Z,29.30
2018-03-03T07:33:40.407Z,30.50
2018-03-03T07:34:40.394Z,31.60
2018-03-03T07:35:40.379Z,30.70
2018-03-03T07:36:40.366Z,30.30
2018-03-03T07:37:40.353Z,30.10
2018-03-03T07:38:40.338Z,30.30
2018-03-03T07:39:40.322Z,28.90
2018-03-03T07:40:40.311Z,28.90
2018-03-03T07:41:40.296Z,29.40
2018-03-03T07:42:40.297Z,30.90
2018-03-03T07:43:40.309Z,29.70
2018-03-03T07:44:40.310Z,27.20
2018-03-03T07:45:40.281Z,29.30
2018-03-03T07:46:40.287Z,28.40
2018-03-03T07:47:40.228Z,30.10
2018-03-03T07:48:40.202Z,30.70
2018-03-03T07:49:40.229Z,29.30
2018-03-03T07:50:40.172Z,30.50
2018-03-03T07:51:40.158Z,29.00
2018-03-03T07:52:40.145Z,28.50
2018-03-03T07:53:40.130Z,30.10
2018-03-03T07:54:40.116Z,30.50
2018-03-03T07:55:40.104Z,29.20
2018-03-03T07:56:40.091Z,30.10
2018-03-03T07:57:40.075Z,31.40
2018-03-03T07:58:40.064Z,30.40
2018-03-03T07:59:40.049Z,30.50
2018-03-03T08:00:40.033Z,32.40
2018-03-03T08:01:40.018Z,30.90
2018-03-03T08:02:40.045Z,30.30
2018-03-03T08:03:39.991Z,29.60
2018-03-03T08:04:39.981Z,28.80
2018-03-03T08:05:39.963Z,29.10
2018-03-03T08:06:39.971Z,30.70
2018-03-03T08:07:39.940Z,32.90
2018-03-03T08:08:39.945Z,31.90
2018-03-03T08:09:39.908Z,32.40
2018-03-03T08:10:39.902Z,30.40
2018-03-03T08:11:39.879Z,30.50
2018-03-03T08:12:39.887Z,30.80
2018-03-03T08:13:39.866Z,33.50
2018-03-03T08:14:39.897Z,33.40
2018-03-03T08:15:39.830Z,34.80
2018-03-03T08:16:39.846Z,32.10
2018-03-03T08:17:39.876Z,31.40
2018-03-03T08:18:39.860Z,31.20
2018-03-03T08:19:40.169Z,32.40
2018-03-03T08:20:39.760Z,34.50
2018-03-03T08:21:39.742Z,32.90
2018-03-03T08:22:39.730Z,35.50
2018-03-03T08:23:39.717Z,36.70
2018-03-03T08:24:39.700Z,35.20
2018-03-03T08:25:39.687Z,33.10
2018-03-03T08:26:39.673Z,33.30
2018-03-03T08:27:39.670Z,33.70
2018-03-03T08:28:39.652Z,32.80
2018-03-03T08:29:39.634Z,32.50
2018-03-03T08:30:39.624Z,31.00
2018-03-03T08:31:39.650Z,32.00
2018-03-03T08:32:39.598Z,31.50
2018-03-03T08:33:39.585Z,34.90
2018-03-03T08:34:39.566Z,30.20
2018-03-03T08:35:39.558Z,28.00
2018-03-03T08:36:39.541Z,30.90
2018-03-03T08:37:39.531Z,32.20
2018-03-03T08:38:39.513Z,29.20
2018-03-03T08:39:39.499Z,31.00
2018-03-03T08:40:39.488Z,33.80
2018-03-03T08:41:39.473Z,36.80
2018-03-03T08:42:39.462Z,31.90
2018-03-03T08:43:39.454Z,31.60
2018-03-03T08:44:39.432Z,33.40
2018-03-03T08:45:39.420Z,36.70
2018-03-03T08:46:39.411Z,35.60
2018-03-03T08:47:39.391Z,31.80
2018-03-03T08:48:39.383Z,31.50
2018-03-03T08:49:39.363Z,32.30
2018-03-03T08:50:39.350Z,29.50
2018-03-03T08:51:39.336Z,31.10
2018-03-03T08:52:39.324Z,29.90
2018-03-03T08:53:39.308Z,27.10
2018-03-03T08:54:39.297Z,33.40
2018-03-03T08:55:39.282Z,34.50
2018-03-03T08:56:39.267Z,33.40
2018-03-03T08:57:39.256Z,34.20
2018-03-03T08:58:39.243Z,34.80
2018-03-03T08:59:39.230Z,33.70
2018-03-03T09:00:39.218Z,29.40
2018-03-03T09:01:39.209Z,26.70
2018-03-03T09:02:39.196Z,28.90
2018-03-03T09:03:39.171Z,34.10
2018-03-03T09:04:39.158Z,31.90
2018-03-03T09:05:39.144Z,32.70
2018-03-03T09:06:39.131Z,31.70
2018-03-03T09:07:39.118Z,30.30
2018-03-03T09:08:39.117Z,34.00
2018-03-03T09:09:39.090Z,31.80
2018-03-03T09:10:39.076Z,35.10
2018-03-03T09:11:39.061Z,34.80
2018-03-03T09:12:39.051Z,29.80
2018-03-03T09:13:39.034Z,31.80
2018-03-03T09:14:39.021Z,32.90
2018-03-03T09:15:39.012Z,33.70
2018-03-03T09:16:38.993Z,30.60
2018-03-03T09:17:38.981Z,29.60
2018-03-03T09:18:38.969Z,32.70
2018-03-03T09:19:38.954Z,36.90
2018-03-03T09:20:38.950Z,36.10
2018-03-03T09:21:38.924Z,34.60
2018-03-03T09:22:38.913Z,36.50
2018-03-03T09:23:38.901Z,35.10
2018-03-03T09:24:38.884Z,37.10
2018-03-03T09:25:38.872Z,34.10
2018-03-03T09:26:38.858Z,32.50
2018-03-03T09:27:38.844Z,35.70
2018-03-03T09:28:38.833Z,38.70
2018-03-03T09:29:38.839Z,34.10
2018-03-03T09:30:38.804Z,28.10
2018-03-03T09:31:38.793Z,30.00
2018-03-03T09:32:38.776Z,32.00
2018-03-03T09:33:38.764Z,34.20
2018-03-03T09:34:38.749Z,35.10
2018-03-03T09:35:38.738Z,37.20
2018-03-03T09:36:38.728Z,33.00
2018-03-03T09:37:38.943Z,29.70
2018-03-03T09:38:38.727Z,32.40
2018-03-03T09:39:38.684Z,35.30
2018-03-03T09:40:38.670Z,35.30
2018-03-03T09:41:38.659Z,38.40
2018-03-03T09:42:38.642Z,37.80
2018-03-03T09:43:38.630Z,36.60
2018-03-03T09:44:38.616Z,33.00
2018-03-03T09:45:38.603Z,37.30
2018-03-03T09:46:38.590Z,37.40
2018-03-03T09:47:38.577Z,33.20
2018-03-03T09:48:38.564Z,31.50
2018-03-03T09:49:38.550Z,32.50
2018-03-03T09:50:38.543Z,27.60
2018-03-03T09:51:39.328Z,35.60
2018-03-03T09:52:38.514Z,31.80
2018-03-03T09:53:38.499Z,32.40
2018-03-03T09:54:38.484Z,35.20
2018-03-03T09:55:38.484Z,36.40
2018-03-03T09:56:38.461Z,32.00
2018-03-03T09:57:38.446Z,31.10
2018-03-03T09:58:38.447Z,32.30
2018-03-03T09:59:38.419Z,31.10
2018-03-03T10:00:38.406Z,29.50
2018-03-03T10:01:43.359Z,37.30
2018-03-03T10:02:38.378Z,33.70
2018-03-03T10:03:38.366Z,32.70
2018-03-03T10:04:38.351Z,31.20
2018-03-03T10:05:38.337Z,30.80
2018-03-03T10:06:38.327Z,28.00
2018-03-03T10:07:38.315Z,32.20
2018-03-03T10:08:38.298Z,36.40
2018-03-03T10:09:38.291Z,36.30
2018-03-03T10:10:38.271Z,36.30
2018-03-03T10:11:38.263Z,37.40
2018-03-03T10:12:38.243Z,36.80
2018-03-03T10:13:38.230Z,41.20
2018-03-03T10:14:38.224Z,37.60
2018-03-03T10:15:38.209Z,36.80
2018-03-03T10:16:38.192Z,33.80
2018-03-03T10:17:38.186Z,38.60
2018-03-03T10:18:38.165Z,39.40
2018-03-03T10:19:38.547Z,37.30
2018-03-03T10:20:38.139Z,37.40
2018-03-03T10:21:38.126Z,38.90
2018-03-03T10:22:38.114Z,35.30
2018-03-03T10:23:38.102Z,27.70
2018-03-03T10:24:38.093Z,35.10
2018-03-03T10:25:38.075Z,37.50
2018-03-03T10:26:38.060Z,39.50
2018-03-03T10:27:38.048Z,36.20
2018-03-03T10:28:38.035Z,40.10
2018-03-03T10:29:38.027Z,38.00
2018-03-03T10:30:38.017Z,38.20
2018-03-03T10:31:38.011Z,37.00
2018-03-03T10:32:38.003Z,34.80
2018-03-03T10:33:37.971Z,36.20
2018-03-03T10:34:37.959Z,38.70
2018-03-03T10:35:37.946Z,38.80
2018-03-03T10:36:37.946Z,33.20
2018-03-03T10:37:37.920Z,29.70
2018-03-03T10:38:37.913Z,32.20
2018-03-03T10:39:37.896Z,30.50
2018-03-03T10:40:37.900Z,35.90
2018-03-03T10:41:37.872Z,37.00
2018-03-03T10:42:37.860Z,32.70
2018-03-03T10:43:37.850Z,30.40
2018-03-03T10:44:37.834Z,33.50
2018-03-03T10:45:37.827Z,38.80
2018-03-03T10:46:37.806Z,27.80
2018-03-03T10:47:37.794Z,33.20
2018-03-03T10:48:37.836Z,36.40
2018-03-03T10:49:37.778Z,39.50
2018-03-03T10:50:37.763Z,37.10
2018-03-03T10:51:37.743Z,38.60
2018-03-03T10:52:38.088Z,39.40
2018-03-03T10:53:37.718Z,38.60
2018-03-03T10:54:37.716Z,42.10
2018-03-03T10:55:37.692Z,38.40
2018-03-03T10:56:37.685Z,40.90
2018-03-03T10:57:37.671Z,39.40
2018-03-03T10:58:37.654Z,38.50
2018-03-03T10:59:37.645Z,43.20
2018-03-03T11:00:37.634Z,43.60
2018-03-03T11:01:37.617Z,39.10
2018-03-03T11:02:37.610Z,40.60
2018-03-03T11:03:37.593Z,41.30
2018-03-03T11:04:37.581Z,41.80
2018-03-03T11:05:37.575Z,43.60
2018-03-03T11:06:37.557Z,40.40
2018-03-03T11:07:37.547Z,41.20
2018-03-03T11:08:37.533Z,41.60
2018-03-03T11:09:37.521Z,41.30
2018-03-03T11:10:37.510Z,42.80
2018-03-03T11:11:37.496Z,43.80
2018-03-03T11:12:37.482Z,43.20
2018-03-03T11:13:37.470Z,42.00
2018-03-03T11:14:37.457Z,45.10
2018-03-03T11:15:37.446Z,44.60
2018-03-03T11:16:37.442Z,44.90
2018-03-03T11:17:37.421Z,48.00
2018-03-03T11:18:37.413Z,45.10
2018-03-03T11:19:37.400Z,44.20
2018-03-03T11:20:37.386Z,44.10
2018-03-03T11:21:37.373Z,44.60
2018-03-03T11:22:37.361Z,44.70
2018-03-03T11:23:37.352Z,44.40
2018-03-03T11:24:37.346Z,45.80
2018-03-03T11:25:37.345Z,46.40
2018-03-03T11:26:37.322Z,45.70
2018-03-03T11:27:37.312Z,49.00
2018-03-03T11:28:37.295Z,50.00
2018-03-03T11:29:37.289Z,49.60
2018-03-03T11:30:37.273Z,47.60
2018-03-03T11:31:37.263Z,48.60
2018-03-03T11:32:37.260Z,48.40
2018-03-03T11:33:37.247Z,48.90
2018-03-03T11:34:37.227Z,45.60
2018-03-03T11:35:37.220Z,47.90
2018-03-03T11:36:37.421Z,48.10
2018-03-03T11:37:37.197Z,48.50
2018-03-03T11:38:37.185Z,48.20
2018-03-03T11:39:37.176Z,47.70
2018-03-03T11:40:37.182Z,49.80
2018-03-03T11:41:37.148Z,50.40
2018-03-03T11:42:37.145Z,51.20
2018-03-03T11:43:37.128Z,47.50
2018-03-03T11:44:37.119Z,45.90
2018-03-03T11:45:37.105Z,49.60
2018-03-03T11:46:37.098Z,48.70
2018-03-03T11:47:37.085Z,49.40
2018-03-03T11:48:37.073Z,49.40
2018-03-03T11:49:37.154Z,52.20
2018-03-03T11:50:37.061Z,47.20
2018-03-03T11:51:37.041Z,50.20
2018-03-03T11:52:37.027Z,51.60
2018-03-03T11:53:37.015Z,50.00
2018-03-03T11:54:37.008Z,53.60
2018-03-03T11:55:36.998Z,49.00
2018-03-03T11:56:36.982Z,48.50
2018-03-03T11:57:37.020Z,52.90
2018-03-03T11:58:36.966Z,50.90
2018-03-03T11:59:37.011Z,52.70
2018-03-03T12:00:37.033Z,55.50
2018-03-03T12:01:37.954Z,52.30
2018-03-03T12:02:36.916Z,54.60
2018-03-03T12:03:37.023Z,54.10
2018-03-03T12:04:37.163Z,52.10
2018-03-03T12:05:36.885Z,52.80
2018-03-03T12:06:37.046Z,49.50
2018-03-03T12:07:36.858Z,49.70
2018-03-03T12:08:36.848Z,47.20
2018-03-03T12:09:36.856Z,53.00
2018-03-03T12:10:36.827Z,53.30
2018-03-03T12:11:36.844Z,52.70
2018-03-03T12:12:36.814Z,52.20
2018-03-03T12:13:36.790Z,49.20
2018-03-03T12:14:36.781Z,53.70
2018-03-03T12:15:36.770Z,52.80
2018-03-03T12:16:36.758Z,53.00
2018-03-03T12:17:36.746Z,55.10
2018-03-03T12:18:36.770Z,50.60
2018-03-03T12:19:36.724Z,50.50
2018-03-03T12:20:36.713Z,51.90
2018-03-03T12:21:36.714Z,53.70
2018-03-03T12:22:36.692Z,48.70
2018-03-03T12:23:36.681Z,51.50
2018-03-03T12:24:37.281Z,50.60
2018-03-03T12:25:36.744Z,51.80
2018-03-03T12:26:36.645Z,52.20
2018-03-03T12:27:36.639Z,51.90
2018-03-03T12:28:36.623Z,53.80
2018-03-03T12:29:36.610Z,54.10
2018-03-03T12:30:36.599Z,53.60
2018-03-03T12:31:36.587Z,51.20
2018-03-03T12:32:36.583Z,52.90
2018-03-03T12:33:36.569Z,53.40
2018-03-03T12:34:36.605Z,50.30
2018-03-03T12:35:36.545Z,53.50
2018-03-03T12:36:36.533Z,53.50
2018-03-03T12:37:36.540Z,50.30
2018-03-03T12:38:36.510Z,55.40
2018-03-03T12:39:36.498Z,53.10
2018-03-03T12:40:37.427Z,52.30
2018-03-03T12:41:36.501Z,51.90
2018-03-03T12:42:36.527Z,51.00
2018-03-03T12:43:36.456Z,52.10
2018-03-03T12:44:36.446Z,50.30
2018-03-03T12:45:36.448Z,52.00
2018-03-03T12:46:36.420Z,51.50
2018-03-03T12:47:36.426Z,53.00
2018-03-03T12:48:36.432Z,53.30
2018-03-03T12:49:36.387Z,52.60
2018-03-03T12:50:36.381Z,53.70
2018-03-03T12:51:36.366Z,51.60
2018-03-03T12:52:36.397Z,52.70
2018-03-03T12:53:36.341Z,49.80
2018-03-03T12:54:36.331Z,51.70
2018-03-03T12:55:36.349Z,50.80
2018-03-03T12:56:36.308Z,52.90
2018-03-03T12:57:36.310Z,52.70
2018-03-03T12:58:36.321Z,53.40
2018-03-03T12:59:36.281Z,53.80
2018-03-03T13:00:36.320Z,51.60
2018-03-03T13:01:36.251Z,53.80
2018-03-03T13:02:36.244Z,54.80
2018-03-03T13:03:36.252Z,50.80
2018-03-03T13:04:36.225Z,53.90
2018-03-03T13:05:36.208Z,51.10
2018-03-03T13:06:36.195Z,53.00
2018-03-03T13:07:36.192Z,50.80
2018-03-03T13:08:36.189Z,53.40
2018-03-03T13:09:36.170Z,53.80
2018-03-03T13:10:36.207Z,53.80
2018-03-03T13:11:36.905Z,51.50
2018-03-03T13:12:36.138Z,52.90
2018-03-03T13:13:36.126Z,53.00
2018-03-03T13:14:36.113Z,47.30
2018-03-03T13:15:36.103Z,50.70
2018-03-03T13:16:36.093Z,54.00
2018-03-03T13:17:36.082Z,52.30
2018-03-03T13:18:36.093Z,53.70
2018-03-03T13:19:36.084Z,51.20
2018-03-03T13:20:36.060Z,50.50
2018-03-03T13:21:36.035Z,50.10
2018-03-03T13:22:36.063Z,50.00
2018-03-03T13:23:36.021Z,50.50
2018-03-03T13:24:36.006Z,51.10
2018-03-03T13:25:36.097Z,52.20
2018-03-03T13:26:35.986Z,51.50
2018-03-03T13:27:35.985Z,47.90
2018-03-03T13:28:36.013Z,45.80
2018-03-03T13:29:35.956Z,46.60
2018-03-03T13:30:35.941Z,53.80
2018-03-03T13:31:35.932Z,47.50
2018-03-03T13:32:35.920Z,50.10
2018-03-03T13:33:35.977Z,52.50
2018-03-03T13:34:35.899Z,52.00
2018-03-03T13:35:35.892Z,48.10
2018-03-03T13:36:35.884Z,48.30
2018-03-03T13:37:35.867Z,47.50
2018-03-03T13:38:35.858Z,46.10
2018-03-03T13:39:35.846Z,51.60
2018-03-03T13:40:35.839Z,54.50
2018-03-03T13:41:35.827Z,48.90
2018-03-03T13:42:35.818Z,46.70
2018-03-03T13:43:35.807Z,47.40
2018-03-03T13:44:35.796Z,49.10
2018-03-03T13:45:35.785Z,49.30
2018-03-03T13:46:35.772Z,48.10
2018-03-03T13:47:35.764Z,47.90
2018-03-03T13:48:35.796Z,49.60
2018-03-03T13:49:35.746Z,47.70
2018-03-03T13:50:35.734Z,46.90
2018-03-03T13:51:35.721Z,48.60
2018-03-03T13:52:35.712Z,47.50
2018-03-03T13:53:35.704Z,50.30
2018-03-03T13:54:35.689Z,50.40
2018-03-03T13:55:35.680Z,50.50
2018-03-03T13:56:36.514Z,48.40